createdAt,value
2023-12-27T00:00:16.953Z,53.37
2023-12-27T00:05:19.983Z,53.84
2023-12-27T00:10:24.211Z,54.15
2023-12-27T00:15:27.076Z,54.28
2023-12-27T00:20:29.935Z,54.54
2023-12-27T00:25:34.154Z,54.74
2023-12-27T00:30:37.123Z,54.68
2023-12-27T00:35:40.028Z,54.77
2023-12-27T00:40:45.373Z,54.93
2023-12-27T00:45:48.207Z,55.04
2023-12-27T00:50:51.001Z,55.06
2023-12-27T00:55:56.411Z,55.02
2023-12-27T01:00:59.266Z,55.12
2023-12-27T01:06:02.240Z,55.36
2023-12-27T01:11:07.084Z,55.13
2023-12-27T01:16:10.258Z,55.16
2023-12-27T01:21:15.115Z,55.23
2023-12-27T01:26:19.373Z,55.30
2023-12-27T01:31:22.280Z,55.51
2023-12-27T01:36:25.182Z,55.82
2023-12-27T01:41:29.395Z,56.24
2023-12-27T01:46:32.871Z,56.21
2023-12-27T01:51:36.770Z,56.39
2023-12-27T01:56:45.358Z,56.62
2023-12-27T02:01:48.860Z,56.82
2023-12-27T02:06:53.129Z,56.67
2023-12-27T02:11:57.330Z,56.84
2023-12-27T02:17:01.885Z,56.89
2023-12-27T02:22:07.060Z,56.94
2023-12-27T02:27:11.337Z,57.32
2023-12-27T02:32:14.354Z,57.47
2023-12-27T02:37:17.193Z,57.40
2023-12-27T02:42:21.392Z,57.64
2023-12-27T02:47:24.253Z,57.81
2023-12-27T02:52:27.870Z,57.79
2023-12-27T02:57:32.113Z,57.71
2023-12-27T03:02:35.122Z,57.76
2023-12-27T03:07:37.893Z,57.87
2023-12-27T03:12:42.134Z,58.21
2023-12-27T03:17:45.055Z,57.89
2023-12-27T03:22:48.107Z,58.18
2023-12-27T03:27:52.263Z,58.29
2023-12-27T03:32:55.219Z,58.55
2023-12-27T03:37:58.383Z,58.54
2023-12-27T03:43:02.686Z,58.67
2023-12-27T03:48:06.341Z,58.85
2023-12-27T03:53:09.444Z,58.95
2023-12-27T03:58:13.606Z,59.05
2023-12-27T04:03:17.054Z,59.06
2023-12-27T04:08:19.947Z,59.00
2023-12-27T04:13:24.102Z,59.25
2023-12-27T04:18:27.118Z,59.37
2023-12-27T04:23:30.030Z,59.53
2023-12-27T04:28:34.436Z,59.57
2023-12-27T04:33:37.550Z,59.47
2023-12-27T04:38:40.881Z,59.63
2023-12-27T04:43:45.023Z,59.67
2023-12-27T04:48:47.999Z,59.74
2023-12-27T04:53:50.944Z,59.85
2023-12-27T04:58:55.182Z,59.83
2023-12-27T05:03:58.183Z,59.93
2023-12-27T05:09:05.247Z,60.08
2023-12-27T05:14:09.478Z,60.05
2023-12-27T05:19:12.334Z,60.15
2023-12-27T05:24:15.233Z,60.24
2023-12-27T05:29:19.421Z,60.28
2023-12-27T05:34:22.569Z,60.21
2023-12-27T05:39:25.518Z,60.22
2023-12-27T05:44:29.694Z,60.23
2023-12-27T05:49:32.585Z,60.36
2023-12-27T05:54:35.519Z,60.49
2023-12-27T05:59:39.864Z,60.75
2023-12-27T06:04:42.778Z,60.73
2023-12-27T06:09:45.558Z,60.67
2023-12-27T06:14:49.698Z,60.70
2023-12-27T06:19:52.525Z,60.78
2023-12-27T06:24:55.340Z,60.83
2023-12-27T06:29:59.542Z,60.77
2023-12-27T06:35:02.443Z,60.91
2023-12-27T06:40:06.628Z,60.94
2023-12-27T06:45:12.025Z,60.98
2023-12-27T06:50:15.094Z,61.04
2023-12-27T06:55:17.999Z,61.09
2023-12-27T07:00:22.586Z,61.24
2023-12-27T07:05:25.682Z,61.24
2023-12-27T07:10:28.602Z,61.48
2023-12-27T07:15:32.887Z,61.51
2023-12-27T07:20:35.781Z,61.36
2023-12-27T07:25:38.745Z,61.59
2023-12-27T07:30:43.278Z,61.67
2023-12-27T07:35:48.133Z,61.77
2023-12-27T07:40:50.981Z,61.84
2023-12-27T07:45:55.159Z,61.83
2023-12-27T07:50:58.070Z,61.93
2023-12-27T07:56:01.121Z,61.97
2023-12-27T08:01:05.851Z,62.07
2023-12-27T08:06:09.199Z,51.18
2023-12-27T08:11:12.150Z,43.42
2023-12-27T08:16:16.353Z,41.90
2023-12-27T08:21:19.348Z,45.13
2023-12-27T08:26:22.213Z,46.09
2023-12-27T08:31:26.480Z,47.28
2023-12-27T08:36:30.829Z,48.26
2023-12-27T08:41:34.016Z,49.02
2023-12-27T08:46:38.191Z,49.83
2023-12-27T08:51:41.159Z,50.47
2023-12-27T08:56:44.033Z,51.31
2023-12-27T09:01:48.782Z,51.78
2023-12-27T09:06:51.762Z,52.34
2023-12-27T09:11:54.642Z,52.70
2023-12-27T09:16:58.857Z,53.12
2023-12-27T09:22:03.862Z,54.11
2023-12-27T09:27:06.965Z,55.01
2023-12-27T09:32:11.459Z,56.07
2023-12-27T09:37:14.450Z,57.21
2023-12-27T09:42:18.426Z,57.96
2023-12-27T09:47:25.598Z,58.74
2023-12-27T09:52:30.875Z,58.95
2023-12-27T09:57:35.168Z,59.02
2023-12-27T10:02:43.367Z,56.57
2023-12-27T10:07:46.690Z,57.90
2023-12-27T10:12:51.378Z,58.03
2023-12-27T10:17:55.817Z,58.16
2023-12-27T10:22:58.814Z,58.39
2023-12-27T10:28:01.784Z,58.45
2023-12-27T10:33:06.974Z,58.80
2023-12-27T10:38:10.006Z,58.83
2023-12-27T10:43:12.831Z,58.83
2023-12-27T10:48:18.323Z,59.07
2023-12-27T10:53:22.154Z,59.28
2023-12-27T10:58:25.603Z,59.31
2023-12-27T11:03:31.839Z,59.21
2023-12-27T11:08:37.034Z,59.39
2023-12-27T11:13:40.738Z,59.32
2023-12-27T11:18:46.958Z,59.41
2023-12-27T11:23:50.005Z,59.96
2023-12-27T11:28:52.917Z,61.03
2023-12-27T11:33:57.591Z,60.69
2023-12-27T11:39:04.417Z,60.14
2023-12-27T11:44:09.337Z,59.94
2023-12-27T11:49:20.735Z,59.55
2023-12-27T11:54:25.513Z,59.04
2023-12-27T11:59:30.062Z,58.55
2023-12-27T12:04:46.023Z,58.20
2023-12-27T12:09:48.965Z,57.83
2023-12-27T12:14:56.234Z,57.52
2023-12-27T12:20:01.955Z,57.23
2023-12-27T12:25:08.854Z,56.85
2023-12-27T12:30:12.497Z,56.52
2023-12-27T12:35:17.437Z,56.33
2023-12-27T12:40:20.465Z,55.98
2023-12-27T12:45:23.704Z,55.81
2023-12-27T12:50:27.968Z,55.54
2023-12-27T12:55:31.353Z,55.42
2023-12-27T13:00:34.415Z,55.23
2023-12-27T13:05:42.435Z,55.09
2023-12-27T13:10:46.099Z,55.06
2023-12-27T13:15:49.106Z,55.27
2023-12-27T13:20:54.044Z,55.10
2023-12-27T13:25:56.915Z,55.11
2023-12-27T13:30:59.861Z,55.03
2023-12-27T13:36:04.314Z,55.14
2023-12-27T13:41:07.282Z,55.20
2023-12-27T13:46:11.228Z,55.19
2023-12-27T13:51:17.167Z,55.13
2023-12-27T13:56:20.376Z,54.98
2023-12-27T14:01:23.443Z,54.90
2023-12-27T14:06:27.784Z,54.84
2023-12-27T14:11:30.733Z,54.90
2023-12-27T14:16:33.902Z,55.14
2023-12-27T14:21:38.421Z,55.34
2023-12-27T14:26:43.388Z,55.34
2023-12-27T14:31:47.941Z,55.90
2023-12-27T14:36:52.179Z,56.00
2023-12-27T14:41:56.773Z,56.27
2023-12-27T14:46:59.659Z,56.48
2023-12-27T14:52:04.440Z,56.80
2023-12-27T14:57:07.259Z,56.91
2023-12-27T15:02:10.347Z,57.01
2023-12-27T15:07:14.618Z,57.24
2023-12-27T15:12:17.781Z,57.48
2023-12-27T15:17:20.612Z,57.58
2023-12-27T15:22:24.725Z,57.53
2023-12-27T15:27:27.680Z,57.81
2023-12-27T15:32:30.670Z,57.85
2023-12-27T15:37:34.838Z,57.86
2023-12-27T15:42:37.639Z,57.80
2023-12-27T15:47:40.664Z,58.19
2023-12-27T15:52:44.927Z,58.30
2023-12-27T15:57:47.825Z,58.35
2023-12-27T16:02:50.931Z,58.42
2023-12-27T16:07:55.208Z,58.42
2023-12-27T16:12:58.184Z,58.58
2023-12-27T16:18:01.920Z,58.70
2023-12-27T16:23:06.959Z,58.74
2023-12-27T16:28:10.331Z,59.01
2023-12-27T16:33:13.461Z,58.97
2023-12-27T16:38:17.794Z,59.08
2023-12-27T16:43:22.272Z,59.10
2023-12-27T16:48:25.320Z,59.30
2023-12-27T16:53:29.683Z,59.07
2023-12-27T16:58:32.530Z,59.19
2023-12-27T17:03:35.626Z,59.24
2023-12-27T17:08:39.963Z,59.14
2023-12-27T17:13:42.801Z,59.27
2023-12-27T17:18:45.828Z,59.26
2023-12-27T17:23:50.324Z,59.33
2023-12-27T17:28:53.275Z,59.41
2023-12-27T17:33:56.201Z,59.52
2023-12-27T17:39:00.618Z,59.64
2023-12-27T17:44:04.884Z,59.72
2023-12-27T17:49:08.116Z,59.83
2023-12-27T17:54:12.564Z,59.91
2023-12-27T17:59:15.484Z,60.05
2023-12-27T18:04:20.120Z,60.13
2023-12-27T18:09:25.665Z,60.12
2023-12-27T18:14:28.496Z,59.89
2023-12-27T18:19:31.458Z,59.58
2023-12-27T18:24:38.693Z,59.51
2023-12-27T18:29:42.127Z,59.40
2023-12-27T18:34:45.516Z,59.01
2023-12-27T18:39:49.876Z,58.75
2023-12-27T18:44:52.806Z,58.67
2023-12-27T18:49:55.736Z,58.43
2023-12-27T18:55:01.299Z,58.28
2023-12-27T19:00:05.675Z,58.08
2023-12-27T19:05:09.596Z,57.91
2023-12-27T19:10:13.949Z,57.89
2023-12-27T19:15:17.159Z,57.66
2023-12-27T19:20:20.651Z,57.65
2023-12-27T19:25:24.861Z,57.58
2023-12-27T19:30:28.339Z,57.33
2023-12-27T19:35:31.266Z,56.82
2023-12-27T19:40:35.470Z,56.36
2023-12-27T19:45:38.332Z,56.12
2023-12-27T19:50:41.982Z,56.11
2023-12-27T19:55:46.219Z,55.83
2023-12-27T20:00:50.003Z,55.44
2023-12-27T20:05:53.374Z,55.42
2023-12-27T20:10:57.690Z,55.02
2023-12-27T20:16:00.605Z,55.08
2023-12-27T20:21:05.076Z,54.78
2023-12-27T20:26:09.386Z,54.52
2023-12-27T20:31:12.431Z,54.23
2023-12-27T20:36:15.535Z,53.95
2023-12-27T20:41:21.521Z,53.79
2023-12-27T20:46:24.442Z,53.60
2023-12-27T20:51:27.419Z,53.47
2023-12-27T20:56:31.555Z,53.36
2023-12-27T21:01:39.566Z,53.68
2023-12-27T21:06:42.624Z,53.44
2023-12-27T21:11:46.796Z,53.42
2023-12-27T21:16:49.724Z,52.97
2023-12-27T21:21:52.666Z,52.97
2023-12-27T21:26:56.857Z,52.87
2023-12-27T21:31:59.776Z,53.17
2023-12-27T21:37:02.628Z,52.96
2023-12-27T21:42:07.108Z,53.21
2023-12-27T21:47:09.914Z,53.03
2023-12-27T21:52:12.741Z,52.81
2023-12-27T21:57:16.941Z,52.83
2023-12-27T22:02:19.896Z,52.95
2023-12-27T22:07:24.223Z,52.93
2023-12-27T22:12:28.552Z,52.61
2023-12-27T22:17:31.400Z,52.88
2023-12-27T22:22:34.246Z,52.85
2023-12-27T22:27:38.691Z,52.93
2023-12-27T22:32:41.770Z,52.85
2023-12-27T22:37:44.656Z,53.17
2023-12-27T22:42:49.009Z,53.19
2023-12-27T22:47:51.837Z,53.21
2023-12-27T22:52:54.949Z,52.97
2023-12-27T22:57:59.499Z,52.77
2023-12-27T23:03:02.640Z,52.72
2023-12-27T23:08:05.914Z,52.84
2023-12-27T23:13:10.083Z,52.91
2023-12-27T23:18:13.670Z,52.67
2023-12-27T23:23:16.704Z,51.92
2023-12-27T23:28:21.086Z,51.94
2023-12-27T23:33:26.233Z,52.29
2023-12-27T23:38:29.311Z,52.03
2023-12-27T23:43:33.531Z,52.21
2023-12-27T23:48:36.509Z,52.74
2023-12-27T23:53:39.511Z,52.97
2023-12-27T23:58:44.468Z,53.44
